Latest Weather Observations for Taree Airport

IDN60801

Issued at 9:33 pm EST Sunday 26 June 2016 (issued every 30 minutes, with the page automatically refreshed every 10 minutes)

About weather observations | Map of weather stations | Latest weather observations for NSW | Other Formats
Station Details ID: 060141 Name: TAREE AIRPORT AWS Lat: -31.89 Lon: 152.51 Height: 8.0 m
Data from the previous 72 hours. | See also: Recent months at Taree Airport
Date/Time
EST
Temp
°C
App
Temp
°C
Dew
Point
°C
Rel
Hum
%
Delta-T
°C
Wind Press
QNH
hPa
Press
MSL
hPa
Rain since
9am
mm
Dir  Spd
km/h
Gust
km/h
Spd
kts
Gust
kts
26/09:30pm 9.1 7.6 6.7 85 1.1 W 4 9 2 5 1016.5 1016.5 0.0
26/09:00pm 9.6 7.7 6.9 83 1.3 S 6 7 3 4 1016.5 1016.5 0.0
26/08:53pm 9.5 8.0 6.8 83 1.3 S 4 7 2 4 1016.4 1016.4 0.0
26/08:35pm 9.2 7.0 6.3 82 1.3 SSW 7 9 4 5 1016.8 1016.8 0.0
26/08:30pm 9.5 7.0 6.6 82 1.4 SSW 9 11 5 6 1017.2 1017.2 0.0
26/08:00pm 9.8 8.6 6.3 79 1.6 NNE 2 9 1 5 1017.4 1017.4 0.0
26/07:30pm 9.7 8.3 5.7 76 1.8 ENE 2 6 1 3 1017.5 1017.5 0.0
26/07:00pm 10.7 8.5 5.5 70 2.4 N 6 7 3 4 1017.6 1017.6 0.0
26/06:30pm 10.3 7.6 5.5 72 2.2 NNE 9 13 5 7 1017.4 1017.4 0.0
26/06:00pm 10.3 9.2 4.9 69 2.4 CALM 0 0 0 0 1017.5 1017.5 0.0
26/05:30pm 10.4 9.2 4.8 68 2.5 CALM 0 0 0 0 1017.0 1017.0 0.0
26/05:00pm 11.6 9.1 4.6 62 3.2 ENE 7 9 4 5 1016.6 1016.6 0.0
26/04:30pm 12.5 9.6 4.7 59 3.6 ENE 9 11 5 6 1016.6 1016.6 0.0
26/04:00pm 13.6 10.4 5.0 56 4.0 ENE 11 13 6 7 1016.8 1016.8 0.0
26/03:30pm 14.1 10.9 4.9 54 4.3 ESE 11 13 6 7 1016.8 1016.8 0.0
26/03:00pm 14.6 11.4 3.1 46 5.2 E 9 11 5 6 1017.0 1017.0 0.0
26/02:30pm 14.9 11.7 2.8 44 5.4 ESE 9 9 5 5 1017.1 1017.1 0.0
26/02:00pm 14.8 11.3 1.3 40 5.8 SE 9 15 5 8 1017.2 1017.2 0.0
26/01:30pm 15.8 13.3 1.5 38 6.3 SSE 4 7 2 4 1017.4 1017.4 0.0
26/01:00pm 15.3 12.4 2.5 42 5.7 SW 7 11 4 6 1017.7 1017.7 0.0
26/12:30pm 15.0 12.1 1.5 40 5.9 WSW 6 11 3 6 1018.3 1018.3 0.0
26/12:00pm 14.2 10.7 1.2 41 5.6 SSW 9 13 5 7 1018.8 1018.8 0.0
26/11:30am 13.8 10.2 0.5 40 5.6 W 9 13 5 7 1019.6 1019.6 0.0
26/11:00am 12.4 7.7 0.8 45 4.8 W 15 20 8 11 1020.6 1020.6 0.0
26/10:30am 11.3 6.6 1.0 49 4.3 WSW 15 20 8 11 1021.1 1021.1 0.0
26/10:00am 10.4 6.6 1.5 54 3.7 WSW 11 15 6 8 1021.1 1021.1 0.0
26/09:30am 8.5 4.6 1.4 61 2.9 W 11 13 6 7 1020.9 1020.9 0.0
26/09:00am 7.5 3.2 0.9 63 2.6 W 13 15 7 8 1020.7 1020.7 0.0
26/08:30am 6.3 2.3 0.4 66 2.3 WSW 11 15 6 8 1021.2 1021.2 0.0
26/08:00am 4.9 1.9 0.5 73 1.7 W 6 7 3 4 1021.0 1021.0 0.0
26/07:30am 4.6 1.0 0.4 74 1.6 W 9 13 5 7 1020.5 1020.5 0.0
26/07:00am 4.6 0.9 0.2 73 1.7 W 9 13 5 7 1020.3 1020.3 0.0
26/06:30am 4.6 0.5 0.0 72 1.7 WNW 11 15 6 8 1020.4 1020.4 0.0
26/06:00am 4.5 0.1 0.1 73 1.7 W 13 15 7 8 1020.4 1020.4 0.0
26/05:30am 4.6 1.0 0.6 75 1.5 W 9 11 5 6 1019.9 1019.9 0.0
26/05:00am 4.8 0.4 0.2 72 1.7 W 13 19 7 10 1020.0 1020.0 0.0
26/04:30am 4.3 -0.1 0.3 75 1.5 W 13 15 7 8 1019.7 1019.7 0.0
26/04:00am 4.4 0.0 0.4 75 1.5 W 13 15 7 8 1019.7 1019.7 0.0
26/03:30am 4.5 0.9 0.3 74 1.6 W 9 13 5 7 1019.4 1019.4 0.0
26/03:00am 4.8 0.8 0.2 72 1.7 WNW 11 15 6 8 1019.2 1019.2 0.0
26/02:30am 5.0 1.0 0.4 72 1.8 W 11 15 6 8 1019.1 1019.1 0.0
26/02:00am 4.7 0.6 0.1 72 1.7 W 11 13 6 7 1019.5 1019.5 0.0
26/01:30am 4.8 0.8 0.4 73 1.7 W 11 13 6 7 1019.7 1019.7 0.0
26/01:00am 5.0 1.0 0.4 72 1.8 W 11 15 6 8 1020.2 1020.2 0.0
26/12:30am 5.0 0.6 0.4 72 1.8 W 13 15 7 8 1020.1 1020.1 0.0
26/12:00am 5.2 0.4 0.2 70 1.9 W 15 19 8 10 1020.3 1020.3 0.0
 
Date/Time
EST
Temp
°C
App
Temp
°C
Dew
Point
°C
Rel
Hum
%
Delta-T
°C
Wind Press
QNH
hPa
Press
MSL
hPa
Rain since
9am
mm
Dir  Spd
km/h
Gust
km/h
Spd
kts
Gust
kts
25/11:30pm 4.8 0.8 0.8 75 1.5 W 11 15 6 8 1020.3 1020.3 0.0
25/11:00pm 5.0 1.4 0.4 72 1.8 W 9 11 5 6 1020.2 1020.2 0.0
25/10:30pm 5.5 1.1 0.5 70 1.9 W 13 17 7 9 1020.2 1020.2 0.0
25/10:00pm 5.6 1.2 0.2 68 2.1 WSW 13 15 7 8 1020.3 1020.3 0.0
25/09:30pm 5.8 1.8 0.4 68 2.1 W 11 15 6 8 1020.3 1020.3 0.0
25/09:00pm 6.5 1.9 -0.7 60 2.7 WNW 13 15 7 8 1020.4 1020.4 0.0
25/08:30pm 6.5 2.3 -0.7 60 2.7 NW 11 13 6 7 1020.4 1020.4 0.0
25/08:00pm 8.1 4.0 0.1 57 3.1 W 11 13 6 7 1019.9 1019.9 0.0
25/07:30pm 6.9 3.3 0.8 65 2.4 S 9 11 5 6 1019.9 1019.9 0.0
25/07:00pm 8.9 5.1 -0.7 51 3.7 W 9 9 5 5 1019.6 1019.6 0.0
25/06:30pm 9.4 5.3 -0.2 51 3.8 WSW 11 17 6 9 1019.3 1019.3 0.0
25/06:00pm 9.5 5.4 -0.4 50 3.9 WSW 11 17 6 9 1019.0 1019.0 0.0
25/05:30pm 10.0 6.2 -0.5 48 4.2 SW 9 13 5 7 1018.8 1018.8 0.0
25/05:00pm 10.8 6.2 -0.9 44 4.6 SW 13 22 7 12 1018.4 1018.4 0.0
25/04:30pm 11.9 6.5 -1.6 39 5.3 SSW 17 24 9 13 1018.1 1018.1 0.0
25/04:00pm 12.6 5.4 -2.1 36 5.8 SW 26 33 14 18 1017.7 1017.7 0.0
25/03:30pm 13.3 6.9 -1.8 35 6.0 SW 22 30 12 16 1017.6 1017.6 0.0
25/03:00pm 13.5 5.9 -2.4 33 6.3 SW 28 35 15 19 1017.4 1017.4 0.0
25/02:30pm 13.7 6.7 -3.1 31 6.5 SW 24 35 13 19 1017.3 1017.3 0.0
25/02:00pm 13.9 7.1 -2.1 33 6.4 SW 24 35 13 19 1017.1 1017.1 0.0
25/01:30pm 13.9 6.7 -1.7 34 6.3 SW 26 35 14 19 1016.9 1016.9 0.0
25/01:00pm 13.8 7.4 -1.8 34 6.2 SW 22 30 12 16 1016.9 1016.9 0.0
25/12:30pm 13.5 6.7 -2.0 34 6.2 SW 24 39 13 21 1017.0 1017.0 0.0
25/12:00pm 13.3 6.1 -2.2 34 6.1 WSW 26 41 14 22 1017.3 1017.3 0.0
25/11:30am 12.8 5.1 -2.6 34 6.0 SW 28 41 15 22 1017.3 1017.3 0.0
25/11:00am 12.8 6.0 -1.9 36 5.8 SW 24 35 13 19 1017.6 1017.6 0.0
25/10:30am 12.0 4.2 -3.4 34 5.8 SW 28 41 15 22 1017.6 1017.6 0.0
25/10:00am 11.6 4.3 -2.9 36 5.5 SW 26 43 14 23 1017.6 1017.6 0.0
25/09:30am 10.9 4.4 -2.1 40 5.0 WSW 22 37 12 20 1017.7 1017.7 0.0
25/09:00am 10.6 4.8 -1.4 43 4.7 W 19 28 10 15 1017.5 1017.5 0.6
25/08:30am 9.5 4.9 -1.2 47 4.2 W 13 19 7 10 1017.2 1017.2 0.6
25/08:00am 8.8 3.8 -1.0 50 3.8 WSW 15 22 8 12 1017.0 1017.0 0.6
25/07:30am 8.1 3.1 -1.4 51 3.6 W 15 20 8 11 1016.7 1016.7 0.6
25/07:00am 7.6 3.4 -1.1 54 3.3 W 11 19 6 10 1016.3 1016.3 0.6
25/06:30am 8.0 2.6 -1.0 53 3.5 W 17 26 9 14 1015.8 1015.8 0.6
25/06:00am 8.5 2.2 -1.0 51 3.7 W 22 30 12 16 1015.2 1015.2 0.6
25/05:30am 8.8 2.9 -0.8 51 3.7 W 20 30 11 16 1015.0 1015.0 0.6
25/05:00am 8.9 3.6 -0.9 50 3.8 W 17 26 9 14 1014.7 1014.7 0.6
25/04:30am 8.8 3.1 -1.0 50 3.8 W 19 30 10 16 1014.2 1014.2 0.6
25/04:00am 9.0 2.7 -1.1 49 3.9 W 22 32 12 17 1014.2 1014.2 0.6
25/03:30am 9.3 2.2 -1.1 48 4.0 W 26 35 14 19 1013.7 1013.7 0.6
25/03:00am 9.6 2.9 -1.1 47 4.2 W 24 37 13 20 1013.6 1013.6 0.6
25/02:30am 9.5 2.4 -0.9 48 4.1 W 26 39 14 21 1013.3 1013.3 0.6
25/02:00am 9.7 3.4 -0.8 48 4.1 W 22 35 12 19 1013.3 1013.3 0.6
25/01:30am 9.7 3.4 -1.1 47 4.2 WNW 22 37 12 20 1012.8 1012.8 0.6
25/01:00am 9.8 3.1 -1.3 46 4.3 W 24 35 13 19 1012.4 1012.4 0.6
25/12:30am 9.9 2.8 -1.5 45 4.4 WNW 26 39 14 21 1012.2 1012.2 0.6
25/12:00am 10.3 3.1 -1.7 43 4.6 W 26 35 14 19 1012.2 1012.2 0.6
 
Date/Time
EST
Temp
°C
App
Temp
°C
Dew
Point
°C
Rel
Hum
%
Delta-T
°C
Wind Press
QNH
hPa
Press
MSL
hPa
Rain since
9am
mm
Dir  Spd
km/h
Gust
km/h
Spd
kts
Gust
kts
24/11:30pm 10.6 2.7 -1.8 42 4.8 W 30 48 16 26 1012.0 1012.0 0.6
24/11:14pm 10.5 2.6 -1.5 43 4.7 W 30 48 16 26 1011.8 1011.8 0.6
24/11:00pm 10.5 3.4 -0.9 45 4.5 WNW 26 35 14 19 1011.6 1011.6 0.6
24/10:30pm 10.4 3.7 -1.0 45 4.5 W 24 35 13 19 1011.8 1011.8 0.6
24/10:00pm 10.5 4.0 0.0 48 4.2 WNW 24 37 13 20 1011.2 1011.2 0.6
24/09:45pm 10.6 3.3 0.3 49 4.2 WNW 28 46 15 25 1011.4 1011.4 0.6
24/09:30pm 10.6 4.5 0.6 50 4.1 W 22 33 12 18 1011.4 1011.4 0.6
24/09:00pm 10.5 4.6 1.6 54 3.7 W 22 37 12 20 1011.2 1011.2 0.6
24/08:30pm 10.0 4.7 3.1 62 3.0 W 20 32 11 17 1011.1 1011.1 0.6
24/08:00pm 10.2 5.1 3.3 62 3.0 W 19 28 10 15 1010.7 1010.7 0.6
24/07:30pm 9.6 3.8 4.4 70 2.3 WNW 24 32 13 17 1010.2 1010.2 0.6
24/07:00pm 9.5 5.6 5.3 75 1.9 NW 15 19 8 10 1010.1 1010.1 0.6
24/06:30pm 9.8 4.9 5.2 73 2.1 W 20 35 11 19 1009.8 1009.8 0.6
24/06:05pm 12.8 6.0 3.2 52 4.3 W 28 57 15 31 1009.8 1009.8 0.0
24/06:00pm 14.0 8.7 2.0 44 5.3 W 19 46 10 25 1008.7 1008.7 0.0
24/05:30pm 13.7 7.0 1.7 44 5.2 W 26 43 14 23 1007.3 1007.3 0.0
24/05:00pm 14.1 8.3 2.4 45 5.2 WNW 22 33 12 18 1006.5 1006.5 0.0
24/04:30pm 14.3 8.6 2.9 46 5.1 W 22 37 12 20 1006.3 1006.3 0.0
24/04:00pm 14.5 8.9 3.3 47 5.1 WNW 22 33 12 18 1006.0 1006.0 0.0
24/03:30pm 14.8 7.3 3.3 46 5.2 W 32 50 17 27 1006.0 1006.0 0.0
24/03:00pm 14.8 7.2 3.9 48 5.0 WSW 33 57 18 31 1005.7 1005.7 0.0
24/02:36pm 14.9 8.2 5.4 53 4.5 WSW 30 48 16 26 1005.4 1005.4 0.0
24/02:30pm 14.8 8.2 5.9 55 4.3 WSW 30 43 16 23 1005.2 1005.2 0.0
24/02:00pm 17.7 10.1 3.9 40 6.5 W 33 54 18 29 1003.8 1003.8 0.0
24/01:42pm 19.1 12.0 3.7 36 7.3 W 30 48 16 26 1003.3 1003.3 0.0
24/01:30pm 18.8 10.7 3.4 36 7.2 WNW 35 52 19 28 1003.3 1003.3 0.0
24/01:00pm 19.8 11.7 3.5 34 7.7 WNW 35 54 19 29 1003.2 1003.2 0.0
24/12:30pm 19.5 9.2 2.4 32 7.9 WNW 46 67 25 36 1003.7 1003.7 0.0
24/12:00pm 20.1 12.1 3.8 34 7.8 WNW 35 54 19 29 1004.0 1004.0 0.0
24/11:38am 20.2 13.2 3.9 34 7.8 WNW 30 48 16 26 1004.6 1004.6 0.0
24/11:30am 19.7 12.2 3.4 34 7.7 WNW 32 48 17 26 1004.8 1004.8 0.0
24/11:00am 19.7 12.7 6.1 41 6.8 WNW 32 50 17 27 1005.1 1005.1 0.0
24/10:41am 19.5 13.6 7.6 46 6.1 W 28 48 15 26 1005.2 1005.2 0.0
24/10:30am 19.4 14.3 7.8 47 5.9 W 24 35 13 19 1005.3 1005.3 0.0
24/10:00am 19.0 14.9 8.6 51 5.4 WNW 20 33 11 18 1005.6 1005.6 0.0
24/09:30am 18.6 14.9 9.4 55 4.8 WNW 19 30 10 16 1005.7 1005.7 0.0
24/09:00am 16.9 15.3 11.4 70 3.0 WNW 11 15 6 8 1005.8 1005.8 0.0
24/08:54am 15.7 14.8 11.5 76 2.3 WNW 7 13 4 7 1005.7 1005.7 0.0
24/08:30am 10.6 10.4 9.0 90 0.8 CALM 0 2 0 1 1005.8 1005.8 0.0
24/08:00am 9.6 7.9 8.5 93 0.5 W 7 11 4 6 1005.7 1005.7 0.0
24/07:30am 8.8 7.1 8.2 96 0.3 WSW 7 11 4 6 1005.5 1005.5 0.0
24/07:00am 7.8 6.1 7.4 97 0.2 WNW 6 9 3 5 1005.4 1005.4 0.0
24/06:30am 8.2 6.0 7.9 98 0.1 WNW 9 17 5 9 1005.3 1005.3 0.0
24/06:00am 8.1 6.3 7.8 98 0.1 W 7 9 4 5 1005.4 1005.4 0.0
24/05:30am 8.1 6.8 7.5 96 0.3 NNW 4 9 2 5 1005.4 1005.4 0.0
24/05:00am 8.3 7.8 7.7 96 0.3 CALM 0 0 0 0 1005.4 1005.4 0.0
24/04:30am 8.9 7.1 7.8 93 0.5 WSW 7 11 4 6 1005.4 1005.4 0.0
24/04:00am 9.5 7.8 8.3 92 0.6 W 7 9 4 5 1005.7 1005.7 0.0
24/03:30am 9.6 8.9 8.5 93 0.5 NW 2 11 1 6 1005.9 1005.9 0.0
24/03:00am 9.8 8.7 8.6 92 0.6 W 4 9 2 5 1005.9 1005.9 0.0
24/02:30am 9.5 8.4 8.4 93 0.5 WSW 4 7 2 4 1005.9 1005.9 0.0
24/02:00am 9.0 8.6 8.2 95 0.4 CALM 0 0 0 0 1006.4 1006.4 0.0
24/01:30am 9.4 9.1 8.6 95 0.4 CALM 0 0 0 0 1006.7 1006.7 0.0
24/01:00am 9.5 8.8 8.7 95 0.4 WNW 2 9 1 5 1007.0 1007.0 0.0
24/12:30am 9.0 8.7 8.6 97 0.2 CALM 0 4 0 2 1007.4 1007.4 0.0
24/12:00am 8.3 6.7 7.9 97 0.2 WSW 6 7 3 4 1007.5 1007.5 0.0
 
Date/Time
EST
Temp
°C
App
Temp
°C
Dew
Point
°C
Rel
Hum
%
Delta-T
°C
Wind Press
QNH
hPa
Press
MSL
hPa
Rain since
9am
mm
Dir  Spd
km/h
Gust
km/h
Spd
kts
Gust
kts
23/11:30pm 8.2 7.6 7.6 96 0.3 CALM 0 0 0 0 1007.9 1007.9 0.0
23/11:00pm 7.9 6.8 6.8 93 0.5 SW 2 7 1 4 1008.2 1008.2 0.0
23/10:30pm 8.9 8.4 8.0 94 0.4 CALM 0 0 0 0 1008.5 1008.5 0.0
23/10:00pm 9.6 8.0 8.7 94 0.4 WNW 7 7 4 4 1008.6 1008.6 0.0

Other Formats:

Comma delimited format used in spreadsheet applications
http://www.bom.gov.au/fwo/IDN60801/IDN60801.95784.axf

JavaScript Object Notation format (JSON) in row-major order
http://www.bom.gov.au/fwo/IDN60801/IDN60801.95784.json